createdAt,value
2022-12-04T00:03:07.813Z,2.88
2022-12-04T00:08:10.849Z,3.03
2022-12-04T00:13:14.638Z,2.50
2022-12-04T00:18:17.529Z,2.80
2022-12-04T00:23:20.487Z,2.15
2022-12-04T00:28:23.408Z,3.65
2022-12-04T00:33:26.815Z,1.27
2022-12-04T00:38:29.842Z,3.30
2022-12-04T00:43:32.810Z,3.50
2022-12-04T00:48:36.245Z,4.10
2022-12-04T00:53:40.162Z,2.45
2022-12-04T00:58:43.535Z,1.73
2022-12-04T01:03:47.198Z,2.78
2022-12-04T01:08:52.427Z,2.92
2022-12-04T01:13:56.677Z,3.60
2022-12-04T01:18:59.862Z,2.40
2022-12-04T01:24:02.939Z,1.95
2022-12-04T01:29:06.185Z,2.20
2022-12-04T01:34:09.161Z,0.95
2022-12-04T01:39:12.626Z,1.55
2022-12-04T01:44:24.408Z,0.80
2022-12-04T01:49:34.424Z,2.92
2022-12-04T01:54:42.274Z,2.15
2022-12-04T01:59:50.936Z,1.65
2022-12-04T02:04:54.620Z,1.23
2022-12-04T02:10:03.936Z,2.65
2022-12-04T02:15:24.792Z,1.67
2022-12-04T02:20:39.576Z,1.95
2022-12-04T02:26:23.501Z,1.85
2022-12-04T02:31:44.427Z,1.52
2022-12-04T02:37:13.222Z,1.30
2022-12-04T02:42:28.291Z,1.00
2022-12-04T02:47:33.958Z,0.90
2022-12-04T02:53:06.326Z,0.95
2022-12-04T02:58:27.160Z,0.80
2022-12-04T03:03:33.787Z,1.13
2022-12-04T03:08:51.668Z,1.40
2022-12-04T03:14:01.639Z,2.13
2022-12-04T03:19:11.072Z,1.50
2022-12-04T03:24:36.881Z,1.40
2022-12-04T03:29:52.913Z,2.00
2022-12-04T03:35:02.795Z,1.25
2022-12-04T03:40:25.887Z,1.90
2022-12-04T03:45:31.483Z,2.53
2022-12-04T03:50:43.056Z,6.28
2022-12-04T03:56:06.782Z,3.15
2022-12-04T04:01:14.078Z,2.33
2022-12-04T04:06:23.658Z,1.73
2022-12-04T04:16:57.708Z,1.42
2022-12-04T04:22:23.450Z,1.50
2022-12-04T04:27:26.540Z,2.25
2022-12-04T04:32:51.641Z,1.65
2022-12-04T04:38:19.129Z,1.88
2022-12-04T04:43:56.815Z,3.45
2022-12-04T04:49:04.047Z,2.75
2022-12-04T04:54:10.735Z,3.30
2022-12-04T04:59:15.432Z,2.08
2022-12-04T05:04:18.392Z,2.95
2022-12-04T05:09:21.394Z,2.83
2022-12-04T05:14:24.365Z,2.70
2022-12-04T05:19:45.773Z,1.65
2022-12-04T05:24:48.903Z,1.90
2022-12-04T05:29:56.514Z,3.45
2022-12-04T05:34:59.766Z,3.00
2022-12-04T05:40:02.810Z,2.60
2022-12-04T05:45:06.294Z,2.63
2022-12-04T05:50:11.331Z,2.72
2022-12-04T05:55:14.483Z,1.98
2022-12-04T06:00:18.415Z,2.28
2022-12-04T06:05:21.587Z,1.42
2022-12-04T06:10:27.009Z,1.70
2022-12-04T06:15:29.899Z,1.70
2022-12-04T06:20:33.785Z,1.67
2022-12-04T06:25:36.988Z,1.63
2022-12-04T06:30:39.907Z,1.35
2022-12-04T06:35:42.826Z,1.33
2022-12-04T06:40:45.736Z,1.90
2022-12-04T06:45:48.970Z,2.05
2022-12-04T06:50:59.763Z,2.15
2022-12-04T06:56:07.938Z,2.40
2022-12-04T07:01:13.514Z,2.90
2022-12-04T07:06:28.995Z,3.33
2022-12-04T07:11:32.848Z,3.33
2022-12-04T07:16:40.685Z,4.57
2022-12-04T07:21:44.435Z,3.05
2022-12-04T07:26:47.718Z,7.28
2022-12-04T07:31:50.738Z,4.55
2022-12-04T07:36:53.760Z,3.88
2022-12-04T07:41:56.658Z,7.78
2022-12-04T07:46:59.943Z,7.75
2022-12-04T07:52:02.931Z,6.57
2022-12-04T07:57:05.985Z,6.25
2022-12-04T08:02:09.232Z,6.90
2022-12-04T08:07:12.189Z,7.32
2022-12-04T08:12:15.138Z,6.50
2022-12-04T08:17:18.194Z,8.43
2022-12-04T08:22:25.052Z,7.07
2022-12-04T08:27:28.486Z,7.82
2022-12-04T08:32:31.388Z,7.32
2022-12-04T08:37:34.427Z,3.40
2022-12-04T08:42:37.356Z,4.10
2022-12-04T08:47:40.382Z,2.03
2022-12-04T08:52:43.472Z,3.58
2022-12-04T08:57:46.655Z,2.60
2022-12-04T09:02:50.992Z,3.97
2022-12-04T09:07:54.096Z,3.28
2022-12-04T09:12:57.052Z,2.22
2022-12-04T09:18:00.034Z,3.38
2022-12-04T09:23:05.245Z,2.65
2022-12-04T09:28:08.610Z,2.67
2022-12-04T09:33:11.823Z,2.80
2022-12-04T09:38:14.811Z,2.72
2022-12-04T09:43:31.637Z,2.72
2022-12-04T09:48:40.532Z,2.38
2022-12-04T09:53:53.853Z,3.95
2022-12-04T09:59:04.080Z,3.08
2022-12-04T10:04:09.404Z,2.25
2022-12-04T10:09:33.819Z,2.20
2022-12-04T10:15:05.033Z,2.42
2022-12-04T10:20:20.149Z,1.98
2022-12-04T10:25:25.635Z,2.33
2022-12-04T10:30:35.965Z,2.83
2022-12-04T10:35:44.195Z,2.17
2022-12-04T10:40:52.237Z,3.40
2022-12-04T10:45:55.698Z,2.90
2022-12-04T10:50:58.980Z,3.10
2022-12-04T10:56:35.191Z,3.85
2022-12-04T11:01:38.447Z,6.40
2022-12-04T11:06:41.708Z,5.40
2022-12-04T11:11:44.931Z,7.72
2022-12-04T11:16:59.838Z,7.30
2022-12-04T11:22:18.102Z,7.40
2022-12-04T11:27:34.521Z,4.45
2022-12-04T11:32:39.013Z,9.15
2022-12-04T11:37:45.452Z,13.15
2022-12-04T11:43:05.010Z,10.00
2022-12-04T11:48:17.257Z,19.52
2022-12-04T11:53:32.444Z,14.18
2022-12-04T11:58:45.284Z,14.60
2022-12-04T12:03:51.784Z,16.52
2022-12-04T12:09:18.583Z,19.27
2022-12-04T12:14:24.226Z,18.65
2022-12-04T12:19:40.550Z,13.35
2022-12-04T12:25:11.732Z,13.98
2022-12-04T12:30:21.825Z,7.10
2022-12-04T12:35:33.348Z,6.57
2022-12-04T12:40:51.178Z,4.70
2022-12-04T12:46:02.510Z,5.45
2022-12-04T12:51:33.255Z,7.13
2022-12-04T12:56:49.220Z,5.13
2022-12-04T13:02:00.857Z,3.95
2022-12-04T13:07:21.230Z,3.20
2022-12-04T13:12:25.194Z,2.40
2022-12-04T13:17:36.620Z,1.77
2022-12-04T13:23:00.704Z,2.15
2022-12-04T13:28:36.558Z,1.15
2022-12-04T13:34:01.165Z,1.02
2022-12-04T13:39:34.325Z,0.95
2022-12-04T13:44:37.603Z,1.73
2022-12-04T13:49:46.413Z,1.10
2022-12-04T13:55:00.346Z,1.20
2022-12-04T14:00:24.804Z,2.95
2022-12-04T14:05:40.442Z,3.05
2022-12-04T14:10:44.747Z,4.90
2022-12-04T14:15:48.428Z,4.03
2022-12-04T14:21:00.761Z,3.75
2022-12-04T14:26:05.635Z,3.63
2022-12-04T14:31:08.845Z,4.32
2022-12-04T14:36:25.520Z,1.67
2022-12-04T14:41:28.752Z,2.83
2022-12-04T14:46:46.292Z,0.77
2022-12-04T14:51:55.307Z,1.00
2022-12-04T14:57:32.912Z,1.60
2022-12-04T15:02:41.750Z,0.98
2022-12-04T15:07:54.369Z,1.30
2022-12-04T15:12:57.862Z,1.55
2022-12-04T15:18:10.256Z,1.90
2022-12-04T15:23:19.529Z,2.15
2022-12-04T15:28:49.306Z,1.13
2022-12-04T15:33:58.953Z,2.17
2022-12-04T15:39:02.865Z,2.40
2022-12-04T15:44:30.453Z,2.70
2022-12-04T15:49:33.936Z,2.55
2022-12-04T15:54:38.060Z,2.38
2022-12-04T15:59:41.273Z,3.38
2022-12-04T16:04:45.654Z,2.80
2022-12-04T16:10:01.070Z,1.80
2022-12-04T16:15:06.929Z,2.30
2022-12-04T16:20:11.889Z,2.30
2022-12-04T16:25:15.436Z,0.90
2022-12-04T16:30:18.616Z,2.85
2022-12-04T16:35:21.898Z,2.13
2022-12-04T16:40:25.039Z,2.45
2022-12-04T16:45:32.243Z,2.30
2022-12-04T16:50:35.509Z,1.67
2022-12-04T16:55:40.052Z,1.33
2022-12-04T17:00:45.228Z,1.20
2022-12-04T17:05:48.496Z,1.23
2022-12-04T17:10:52.410Z,1.40
2022-12-04T17:15:55.889Z,1.33
2022-12-04T17:20:59.207Z,1.27
2022-12-04T17:26:07.883Z,1.42
2022-12-04T17:31:29.439Z,1.42
2022-12-04T17:41:35.733Z,0.60
2022-12-04T17:46:39.153Z,1.08
2022-12-04T17:51:42.283Z,1.55
2022-12-04T17:56:49.586Z,1.58
2022-12-04T18:01:55.444Z,1.23
2022-12-04T18:06:58.739Z,1.50
2022-12-04T18:12:02.130Z,1.30
2022-12-04T18:17:05.529Z,1.00
2022-12-04T18:22:08.773Z,1.08
2022-12-04T18:27:11.857Z,2.55
2022-12-04T18:32:14.985Z,2.20
2022-12-04T18:37:18.773Z,2.30
2022-12-04T18:42:21.904Z,2.78
2022-12-04T18:47:27.015Z,1.50
2022-12-04T18:52:30.185Z,2.47
2022-12-04T18:57:33.970Z,1.90
2022-12-04T19:02:37.116Z,2.28
2022-12-04T19:07:40.360Z,2.35
2022-12-04T19:12:43.465Z,2.92
2022-12-04T19:17:46.804Z,1.85
2022-12-04T19:22:49.979Z,2.25
2022-12-04T19:27:53.076Z,1.60
2022-12-04T19:32:56.192Z,2.70
2022-12-04T19:37:59.344Z,2.17
2022-12-04T19:43:03.191Z,1.90
2022-12-04T19:48:06.628Z,2.00
2022-12-04T19:53:09.845Z,2.20
2022-12-04T19:58:13.118Z,2.15
2022-12-04T20:03:16.271Z,1.42
2022-12-04T20:08:19.450Z,1.70
2022-12-04T20:13:22.485Z,2.00
2022-12-04T20:18:25.770Z,1.52
2022-12-04T20:23:29.630Z,2.13
2022-12-04T20:28:32.729Z,2.92
2022-12-04T20:33:35.879Z,1.70
2022-12-04T20:38:40.386Z,2.03
2022-12-04T20:43:44.279Z,1.48
2022-12-04T20:48:49.555Z,1.92
2022-12-04T20:53:53.944Z,2.78
2022-12-04T20:58:58.847Z,3.17
2022-12-04T21:04:02.938Z,2.00
2022-12-04T21:09:08.975Z,3.03
2022-12-04T21:14:37.665Z,1.75
2022-12-04T21:19:40.920Z,1.73
2022-12-04T21:24:44.159Z,1.90
2022-12-04T21:29:47.226Z,2.17
2022-12-04T21:34:52.124Z,3.92
2022-12-04T21:39:55.706Z,2.75
2022-12-04T21:45:04.401Z,2.50
2022-12-04T21:50:08.126Z,1.90
2022-12-04T21:55:11.340Z,1.17
2022-12-04T22:00:15.156Z,1.20
2022-12-04T22:05:18.257Z,2.65
2022-12-04T22:10:21.393Z,5.40
2022-12-04T22:15:24.475Z,4.50
2022-12-04T22:20:27.918Z,3.33
2022-12-04T22:25:31.550Z,3.33
2022-12-04T22:30:34.887Z,2.95
2022-12-04T22:35:38.311Z,3.65
2022-12-04T22:40:41.487Z,2.65
2022-12-04T22:45:44.686Z,2.42
2022-12-04T22:50:56.939Z,3.25
2022-12-04T22:56:28.003Z,3.65
2022-12-04T23:01:34.691Z,3.50
2022-12-04T23:06:38.105Z,3.33
2022-12-04T23:11:41.793Z,2.75
2022-12-04T23:16:45.010Z,2.83
2022-12-04T23:21:56.438Z,3.10
2022-12-04T23:27:00.248Z,1.70
2022-12-04T23:32:03.369Z,1.80
2022-12-04T23:37:07.684Z,0.68
2022-12-04T23:42:10.795Z,0.95
2022-12-04T23:47:13.953Z,1.20
2022-12-04T23:52:17.076Z,2.40
2022-12-04T23:57:20.282Z,2.42
